Accueil
METAR-TAF:

METAR-TAF

Aéroports :

Aéroport Sultan Abdul Aziz Shah

Subang Jaya, Malaisie

latitude: 03-07N, longitude: 101-32E, altitude: 27 m

Observation

Le bulletin a été fait il y a 42 minutes, à 03:00 UTC
Vent 3 kt de est/sud-est, variant entre nord-est et sud
Température 28°C
Humidité 74%
Pression 1010 hPa
Visibilité 10 km ou plus
Quelques nuages à une hauteur de 1800 ft

METAR: WMSA 220300Z 12003KT 050V190 9999 FEW018 28/23 Q1010

Heure: 11:42 (03:42 UTC)

Prévision

Le bulletin a été fait il y a 4 heures et 42 minutes, à 23:00 UTC
Prévision valable du 22 à 00 UTC au 23 à 00 UTC
Vent 2 kt de direction variable
Visibilité: 9000 m
Quelques nuages à une hauteur de 1700 ft, Cumulonimbus.
Temporairement
du 22 à 00 UTC au 22 à 03 UTC
Visibilité: 8000 m
Quelques nuages à une hauteur de 1000 ft
pluie faible,

TAF: WMSA 212300Z 2200/2300 VRB02KT 9000 FEW017CB TEMPO 2200/2203 8000 -RA FEW010

Observations et prévisions météorologiques de plus de 4000 aéroports (messages METAR et TAF).

Les stations disponibles sont représentées par des disques jaunes et rouges sur la carte.

Passer la souris dessus pour voir le nom de la station.

Cliquer dessus pour voir les observations et prévisions météorologiques.

Pour changer de carte: cliquez sur les boutons verts avec une croix noire pour zoomer, sur le bouton vert avec un tiret pour effectuer un zoom arrière, ou sur les flèches vertes pour les cartes adjacentes.


METAR-TAF: